createdAt,value
2019-02-15T00:01:26.595Z,4.80
2019-02-15T00:03:52.825Z,4.77
2019-02-15T00:06:19.269Z,4.73
2019-02-15T00:08:45.822Z,4.63
2019-02-15T00:11:12.050Z,4.30
2019-02-15T00:13:43.209Z,4.60
2019-02-15T00:16:10.733Z,4.33
2019-02-15T00:18:44.845Z,4.67
2019-02-15T00:21:13.013Z,4.40
2019-02-15T00:23:39.219Z,4.73
2019-02-15T00:26:05.644Z,4.60
2019-02-15T00:28:31.854Z,4.40
2019-02-15T00:30:58.091Z,4.63
2019-02-15T00:33:24.691Z,4.00
2019-02-15T00:35:50.921Z,4.23
2019-02-15T00:38:17.141Z,4.10
2019-02-15T00:40:43.354Z,3.97
2019-02-15T00:43:09.616Z,3.70
2019-02-15T00:45:46.688Z,3.47
2019-02-15T00:48:32.798Z,3.93
2019-02-15T00:51:10.044Z,4.50
2019-02-15T00:53:55.116Z,4.30
2019-02-15T00:56:32.470Z,4.47
2019-02-15T00:59:15.679Z,4.47
2019-02-15T01:01:59.035Z,4.40
2019-02-15T01:04:29.796Z,4.13
2019-02-15T01:06:57.954Z,4.23
2019-02-15T01:09:28.700Z,4.73
2019-02-15T01:12:02.535Z,4.40
2019-02-15T01:14:29.144Z,4.13
2019-02-15T01:16:55.396Z,3.50
2019-02-15T01:19:21.614Z,3.80
2019-02-15T01:21:47.838Z,3.43
2019-02-15T01:24:14.005Z,3.70
2019-02-15T01:26:42.426Z,4.90
2019-02-15T01:29:10.533Z,4.63
2019-02-15T01:31:55.474Z,4.57
2019-02-15T01:34:23.699Z,4.00
2019-02-15T01:36:52.185Z,3.87
2019-02-15T01:39:25.992Z,3.63
2019-02-15T01:41:56.751Z,3.70
2019-02-15T01:44:24.851Z,3.90
2019-02-15T01:46:52.966Z,3.40
2019-02-15T01:49:19.178Z,3.63
2019-02-15T01:51:45.376Z,3.97
2019-02-15T01:54:11.592Z,4.13
2019-02-15T01:56:37.758Z,4.03
2019-02-15T01:59:03.984Z,3.33
2019-02-15T02:01:30.187Z,4.10
2019-02-15T02:03:56.440Z,3.43
2019-02-15T02:06:22.640Z,3.83
2019-02-15T02:08:48.837Z,4.30
2019-02-15T02:11:15.028Z,4.47
2019-02-15T02:13:49.269Z,4.07
2019-02-15T02:16:09.450Z,3.67
2019-02-15T02:18:35.683Z,3.97
2019-02-15T02:21:01.974Z,4.23
2019-02-15T02:23:28.177Z,4.63
2019-02-15T02:25:54.357Z,3.90
2019-02-15T02:28:20.921Z,4.20
2019-02-15T02:30:47.134Z,4.07
2019-02-15T02:33:13.410Z,3.27
2019-02-15T02:35:39.587Z,4.10
2019-02-15T02:38:05.803Z,3.97
2019-02-15T02:40:33.594Z,3.80
2019-02-15T02:42:59.798Z,4.17
2019-02-15T02:45:25.963Z,4.60
2019-02-15T02:47:52.190Z,4.33
2019-02-15T02:50:18.396Z,3.83
2019-02-15T02:52:44.617Z,4.07
2019-02-15T02:55:10.788Z,4.17
2019-02-15T02:57:37.350Z,4.27
2019-02-15T03:00:03.938Z,3.63
2019-02-15T03:02:30.084Z,3.50
2019-02-15T03:04:56.493Z,3.57
2019-02-15T03:07:22.753Z,3.80
2019-02-15T03:09:48.964Z,3.47
2019-02-15T03:12:15.204Z,3.43
2019-02-15T03:14:41.435Z,3.67
2019-02-15T03:17:07.940Z,3.73
2019-02-15T03:19:34.265Z,3.67
2019-02-15T03:22:00.449Z,3.03
2019-02-15T03:24:27.178Z,3.33
2019-02-15T03:26:56.009Z,3.43
2019-02-15T03:29:22.269Z,3.03
2019-02-15T03:31:48.453Z,3.37
2019-02-15T03:34:14.679Z,3.27
2019-02-15T03:36:54.849Z,3.57
2019-02-15T03:39:22.966Z,3.53
2019-02-15T03:41:49.179Z,3.33
2019-02-15T03:44:21.658Z,3.27
2019-02-15T03:46:43.502Z,3.77
2019-02-15T03:49:09.778Z,3.70
2019-02-15T03:51:35.992Z,3.40
2019-02-15T03:54:02.187Z,3.13
2019-02-15T03:56:28.364Z,3.20
2019-02-15T03:58:54.573Z,3.20
2019-02-15T04:01:20.766Z,3.23
2019-02-15T04:03:46.966Z,3.70
2019-02-15T04:06:13.185Z,3.50
2019-02-15T04:08:39.451Z,8.27
2019-02-15T04:11:05.657Z,9.07
2019-02-15T04:13:31.936Z,9.10
2019-02-15T04:15:58.509Z,7.90
2019-02-15T04:18:24.801Z,5.47
2019-02-15T04:20:51.474Z,4.73
2019-02-15T04:23:17.633Z,4.80
2019-02-15T04:25:44.207Z,4.60
2019-02-15T04:28:10.409Z,4.43
2019-02-15T04:30:36.647Z,5.13
2019-02-15T04:33:03.129Z,4.60
2019-02-15T04:35:29.440Z,3.80
2019-02-15T04:37:55.635Z,11.03
2019-02-15T04:40:21.868Z,5.47
2019-02-15T04:42:48.114Z,4.00
2019-02-15T04:45:14.473Z,2.93
2019-02-15T04:47:40.710Z,4.20
2019-02-15T04:50:08.037Z,4.23
2019-02-15T04:52:34.214Z,4.00
2019-02-15T04:55:00.448Z,3.83
2019-02-15T04:57:26.641Z,4.20
2019-02-15T04:59:54.321Z,3.73
2019-02-15T05:02:20.497Z,3.67
2019-02-15T05:04:46.737Z,3.80
2019-02-15T05:07:12.903Z,3.10
2019-02-15T05:09:39.095Z,3.70
2019-02-15T05:12:05.319Z,3.73
2019-02-15T05:14:31.985Z,3.70
2019-02-15T05:16:58.172Z,3.13
2019-02-15T05:19:24.374Z,3.13
2019-02-15T05:21:50.593Z,3.27
2019-02-15T05:24:16.827Z,3.03
2019-02-15T05:26:43.018Z,3.03
2019-02-15T05:29:09.267Z,4.00
2019-02-15T05:31:35.535Z,3.40
2019-02-15T05:34:01.838Z,3.13
2019-02-15T05:36:28.153Z,3.63
2019-02-15T05:38:55.226Z,3.50
2019-02-15T05:41:21.462Z,3.53
2019-02-15T05:43:47.677Z,3.47
2019-02-15T05:46:14.040Z,3.77
2019-02-15T05:48:40.242Z,3.50
2019-02-15T05:51:20.093Z,3.40
2019-02-15T05:53:51.569Z,3.60
2019-02-15T05:56:18.988Z,3.07
2019-02-15T05:58:45.213Z,3.20
2019-02-15T06:01:12.012Z,3.20
2019-02-15T06:03:38.282Z,4.17
2019-02-15T06:06:07.861Z,5.60
2019-02-15T06:08:34.052Z,5.57
2019-02-15T06:11:07.554Z,4.97
2019-02-15T06:13:28.382Z,5.40
2019-02-15T06:15:54.571Z,4.50
2019-02-15T06:18:20.794Z,4.17
2019-02-15T06:20:47.035Z,3.97
2019-02-15T06:23:13.299Z,4.00
2019-02-15T06:25:39.558Z,3.83
2019-02-15T06:28:05.739Z,4.03
2019-02-15T06:30:31.971Z,3.90
2019-02-15T06:32:58.216Z,4.27
2019-02-15T06:35:24.480Z,4.40
2019-02-15T06:37:50.696Z,4.80
2019-02-15T06:40:16.995Z,4.30
2019-02-15T06:42:45.745Z,4.03
2019-02-15T06:45:12.113Z,3.87
2019-02-15T06:47:38.447Z,3.80
2019-02-15T06:50:06.473Z,3.60
2019-02-15T06:52:34.248Z,3.50
2019-02-15T06:55:01.905Z,3.50
2019-02-15T06:57:28.055Z,3.87
2019-02-15T06:59:56.157Z,4.13
2019-02-15T07:02:27.295Z,3.83
2019-02-15T07:04:58.515Z,4.37
2019-02-15T07:07:24.691Z,5.00
2019-02-15T07:09:50.921Z,4.00
2019-02-15T07:12:17.112Z,3.27
2019-02-15T07:14:43.319Z,3.47
2019-02-15T07:17:09.558Z,2.67
2019-02-15T07:19:35.724Z,3.10
2019-02-15T07:22:02.260Z,2.90
2019-02-15T07:24:28.447Z,2.87
2019-02-15T07:26:54.667Z,2.50
2019-02-15T07:29:20.878Z,2.17
2019-02-15T07:31:47.147Z,1.90
2019-02-15T07:34:13.364Z,1.93
2019-02-15T07:36:39.600Z,2.50
2019-02-15T07:39:05.823Z,2.00
2019-02-15T07:41:33.164Z,1.73
2019-02-15T07:43:59.345Z,2.40
2019-02-15T07:46:25.589Z,2.13
2019-02-15T07:48:51.766Z,1.90
2019-02-15T07:51:18.013Z,2.10
2019-02-15T07:53:44.203Z,2.10
2019-02-15T07:56:10.459Z,2.53
2019-02-15T07:58:36.689Z,2.67
2019-02-15T08:01:02.996Z,2.27
2019-02-15T08:03:29.444Z,2.03
2019-02-15T08:05:55.715Z,2.20
2019-02-15T08:08:21.872Z,2.07
2019-02-15T08:10:48.141Z,1.80
2019-02-15T08:13:14.367Z,2.57
2019-02-15T08:15:40.558Z,2.03
2019-02-15T08:18:06.781Z,2.33
2019-02-15T08:20:34.227Z,2.00
2019-02-15T08:23:04.584Z,2.10
2019-02-15T08:25:30.783Z,1.97
2019-02-15T08:27:57.687Z,2.30
2019-02-15T08:30:23.902Z,1.90
2019-02-15T08:32:50.114Z,1.73
2019-02-15T08:35:16.868Z,2.20
2019-02-15T08:37:43.094Z,1.90
2019-02-15T08:40:09.953Z,2.33
2019-02-15T08:42:36.180Z,2.03
2019-02-15T08:45:06.594Z,2.10
2019-02-15T08:47:32.977Z,2.23
2019-02-15T08:49:59.147Z,2.07
2019-02-15T08:52:25.424Z,2.00
2019-02-15T08:54:51.594Z,2.43
2019-02-15T08:57:17.827Z,2.07
2019-02-15T08:59:47.107Z,1.93
2019-02-15T09:02:15.223Z,2.50
2019-02-15T09:04:41.364Z,2.10
2019-02-15T09:07:07.592Z,2.33
2019-02-15T09:09:33.774Z,2.37
2019-02-15T09:12:00.097Z,2.03
2019-02-15T09:14:26.260Z,2.50
2019-02-15T09:16:52.486Z,2.30
2019-02-15T09:19:18.690Z,2.50
2019-02-15T09:21:44.944Z,2.50
2019-02-15T09:24:11.151Z,2.10
2019-02-15T09:26:37.353Z,2.53
2019-02-15T09:29:04.920Z,2.67
2019-02-15T09:31:31.144Z,2.43
2019-02-15T09:33:57.366Z,2.40
2019-02-15T09:36:23.580Z,2.37
2019-02-15T09:38:49.818Z,2.10
2019-02-15T09:41:16.384Z,2.40
2019-02-15T09:43:42.688Z,2.70
2019-02-15T09:46:08.896Z,2.50
2019-02-15T09:48:35.085Z,2.60
2019-02-15T09:51:01.270Z,3.03
2019-02-15T09:53:27.890Z,2.50
2019-02-15T09:55:54.089Z,2.67
2019-02-15T09:58:20.344Z,2.43
2019-02-15T10:00:46.531Z,2.53
2019-02-15T10:03:12.784Z,3.20
2019-02-15T10:05:38.954Z,2.50
2019-02-15T10:08:06.221Z,3.00
2019-02-15T10:10:32.539Z,3.00
2019-02-15T10:12:58.738Z,2.97
2019-02-15T10:15:24.957Z,2.50
2019-02-15T10:17:51.163Z,2.57
2019-02-15T10:20:17.372Z,2.60
2019-02-15T10:22:43.551Z,2.83
2019-02-15T10:25:10.043Z,2.53
2019-02-15T10:27:36.230Z,2.57
2019-02-15T10:30:06.602Z,2.57
2019-02-15T10:32:34.778Z,2.73
2019-02-15T10:35:00.935Z,2.60
2019-02-15T10:37:27.136Z,2.97
2019-02-15T10:39:53.335Z,2.80
2019-02-15T10:42:19.560Z,2.53
2019-02-15T10:44:45.747Z,2.47
2019-02-15T10:47:15.754Z,3.10
2019-02-15T10:49:42.413Z,2.73
2019-02-15T10:52:09.780Z,2.97
2019-02-15T10:54:35.985Z,3.10
2019-02-15T10:57:02.187Z,2.80
2019-02-15T10:59:28.421Z,2.53
2019-02-15T11:01:54.669Z,2.80
2019-02-15T11:04:20.926Z,2.60
2019-02-15T11:06:47.154Z,2.77
2019-02-15T11:09:13.341Z,3.43
2019-02-15T11:11:39.553Z,2.60
2019-02-15T11:14:05.720Z,2.63
2019-02-15T11:16:32.122Z,3.40
2019-02-15T11:18:58.337Z,2.77
2019-02-15T11:21:24.547Z,3.47
2019-02-15T11:23:50.776Z,3.00
2019-02-15T11:26:24.564Z,3.20
2019-02-15T11:28:45.577Z,2.97
2019-02-15T11:31:11.794Z,3.40
2019-02-15T11:33:37.987Z,3.50
2019-02-15T11:36:04.584Z,3.03
2019-02-15T11:38:30.767Z,3.13
2019-02-15T11:40:57.341Z,2.93
2019-02-15T11:43:23.551Z,3.13
2019-02-15T11:45:49.756Z,2.93
2019-02-15T11:48:15.918Z,3.03
2019-02-15T11:50:42.175Z,2.97
2019-02-15T11:53:08.455Z,2.67
2019-02-15T11:55:34.934Z,2.63
2019-02-15T11:58:01.368Z,2.50
2019-02-15T12:00:32.619Z,2.77
2019-02-15T12:02:58.820Z,2.20
2019-02-15T12:05:25.056Z,2.40
2019-02-15T12:07:51.272Z,2.70
2019-02-15T12:10:17.793Z,2.30
2019-02-15T12:12:44.068Z,2.50
2019-02-15T12:15:10.300Z,2.33
2019-02-15T12:17:36.779Z,2.07
2019-02-15T12:20:08.242Z,2.20
2019-02-15T12:22:34.460Z,2.43
2019-02-15T12:25:00.644Z,2.53
2019-02-15T12:27:26.884Z,2.47
2019-02-15T12:29:53.049Z,2.27
2019-02-15T12:32:19.295Z,2.50
2019-02-15T12:34:45.552Z,2.07
2019-02-15T12:37:11.823Z,2.23
2019-02-15T12:39:38.008Z,3.37
2019-02-15T12:42:04.354Z,2.47
2019-02-15T12:44:30.526Z,2.13
2019-02-15T12:46:56.800Z,2.20
2019-02-15T12:49:23.116Z,2.13
2019-02-15T12:51:49.350Z,1.97
2019-02-15T12:54:15.537Z,1.87
2019-02-15T12:56:41.893Z,1.77
2019-02-15T12:59:08.137Z,2.00
2019-02-15T13:01:34.571Z,1.70
2019-02-15T13:04:00.843Z,1.53
2019-02-15T13:06:28.895Z,1.60
2019-02-15T13:08:55.136Z,1.70
2019-02-15T13:11:21.325Z,1.80
2019-02-15T13:13:47.521Z,1.60
2019-02-15T13:16:17.091Z,1.60
2019-02-15T13:18:43.451Z,1.33
2019-02-15T13:21:11.227Z,1.20
2019-02-15T13:23:37.381Z,1.40
2019-02-15T13:26:08.625Z,1.17
2019-02-15T13:28:32.292Z,1.20
2019-02-15T13:30:58.505Z,1.10
2019-02-15T13:33:24.709Z,0.93
2019-02-15T13:35:50.881Z,0.80
2019-02-15T13:38:17.458Z,0.70
2019-02-15T13:40:43.700Z,0.70
2019-02-15T13:43:09.901Z,0.70
2019-02-15T13:45:36.103Z,0.60
2019-02-15T13:48:02.328Z,0.60
2019-02-15T13:50:28.500Z,0.70
2019-02-15T13:52:54.766Z,0.60
2019-02-15T13:55:21.537Z,0.50
2019-02-15T13:57:51.131Z,0.70
2019-02-15T14:00:17.679Z,0.70
2019-02-15T14:02:43.954Z,0.63
2019-02-15T14:05:11.287Z,0.43
2019-02-15T14:07:37.449Z,0.43
2019-02-15T14:10:07.853Z,0.90
2019-02-15T14:12:34.050Z,1.10
2019-02-15T14:15:00.300Z,0.70
2019-02-15T14:17:26.609Z,0.70
2019-02-15T14:19:52.811Z,0.50
2019-02-15T14:22:19.007Z,0.47
2019-02-15T14:24:45.276Z,0.50
2019-02-15T14:27:11.461Z,0.60
2019-02-15T14:29:37.704Z,0.47
2019-02-15T14:32:03.909Z,0.40
2019-02-15T14:34:30.157Z,0.50
2019-02-15T14:36:56.368Z,0.43
2019-02-15T14:39:22.569Z,0.50
2019-02-15T14:41:48.794Z,0.60
2019-02-15T14:44:15.811Z,0.40
2019-02-15T14:46:41.994Z,0.60
2019-02-15T14:49:08.267Z,0.70
2019-02-15T14:51:34.429Z,9.20
2019-02-15T14:54:00.648Z,3.03
2019-02-15T14:56:26.913Z,1.50
2019-02-15T14:58:53.323Z,0.90
2019-02-15T15:01:19.467Z,0.73
2019-02-15T15:03:45.992Z,0.57
2019-02-15T15:06:12.322Z,0.80
2019-02-15T15:08:38.521Z,0.70
2019-02-15T15:11:04.700Z,0.67
2019-02-15T15:13:31.172Z,0.87
2019-02-15T15:15:57.395Z,0.90
2019-02-15T15:18:23.724Z,0.93
2019-02-15T15:20:49.897Z,1.10
2019-02-15T15:23:16.217Z,2.10
2019-02-15T15:25:42.354Z,1.70
2019-02-15T15:28:08.542Z,1.10
2019-02-15T15:30:34.815Z,1.50
2019-02-15T15:33:00.965Z,1.03
2019-02-15T15:35:27.184Z,0.97
2019-02-15T15:37:53.398Z,0.83
2019-02-15T15:40:19.642Z,1.17
2019-02-15T15:42:45.851Z,1.80
2019-02-15T15:45:12.398Z,5.10
2019-02-15T15:47:38.614Z,3.67
2019-02-15T15:50:08.585Z,3.53
2019-02-15T15:52:34.844Z,2.00
2019-02-15T15:55:01.068Z,1.87
2019-02-15T15:57:27.422Z,2.00
2019-02-15T15:59:53.601Z,2.03
2019-02-15T16:02:20.941Z,2.03
2019-02-15T16:04:47.241Z,1.47
2019-02-15T16:07:13.426Z,1.93
2019-02-15T16:09:39.698Z,1.37
2019-02-15T16:12:05.973Z,1.50
2019-02-15T16:14:32.161Z,0.90
2019-02-15T16:16:58.381Z,1.33
2019-02-15T16:19:24.798Z,1.43
2019-02-15T16:21:50.968Z,1.50
2019-02-15T16:24:18.612Z,1.40
2019-02-15T16:26:44.841Z,1.30
2019-02-15T16:29:11.087Z,1.90
2019-02-15T16:31:37.361Z,1.70
2019-02-15T16:34:03.661Z,1.90
2019-02-15T16:36:30.021Z,2.00
2019-02-15T16:38:56.363Z,1.47
2019-02-15T16:41:22.581Z,1.50
2019-02-15T16:43:48.984Z,1.67
2019-02-15T16:46:16.340Z,1.93
2019-02-15T16:48:43.726Z,2.40
2019-02-15T16:51:10.297Z,2.50
2019-02-15T16:53:36.495Z,3.57
2019-02-15T16:56:02.720Z,4.27
2019-02-15T16:58:28.923Z,4.40
2019-02-15T17:00:55.556Z,4.77
2019-02-15T17:03:21.759Z,4.70
2019-02-15T17:05:48.279Z,3.70
2019-02-15T17:08:14.479Z,3.10
2019-02-15T17:10:40.775Z,2.80
2019-02-15T17:13:06.975Z,2.37
2019-02-15T17:15:33.278Z,2.10
2019-02-15T17:17:59.563Z,1.80
2019-02-15T17:20:25.762Z,1.80
2019-02-15T17:22:53.394Z,1.80
2019-02-15T17:25:19.603Z,1.70
2019-02-15T17:27:45.833Z,1.57
2019-02-15T17:30:12.093Z,2.10
2019-02-15T17:32:40.175Z,1.90
2019-02-15T17:35:08.755Z,1.97
2019-02-15T17:37:35.185Z,1.90
2019-02-15T17:40:04.738Z,2.30
2019-02-15T17:42:30.964Z,2.30
2019-02-15T17:44:57.259Z,2.20
2019-02-15T17:47:23.576Z,2.40
2019-02-15T17:49:51.126Z,2.03
2019-02-15T17:52:17.367Z,2.13
2019-02-15T17:54:44.343Z,2.13
2019-02-15T17:57:10.674Z,1.83
2019-02-15T17:59:36.857Z,2.00
2019-02-15T18:02:03.612Z,1.97
2019-02-15T18:04:30.109Z,2.50
2019-02-15T18:06:56.406Z,2.53
2019-02-15T18:09:22.591Z,2.83
2019-02-15T18:11:48.910Z,2.60
2019-02-15T18:14:17.131Z,2.83
2019-02-15T18:16:43.371Z,3.23
2019-02-15T18:19:10.282Z,3.50
2019-02-15T18:21:36.927Z,3.20
2019-02-15T18:24:03.309Z,3.07
2019-02-15T18:26:31.690Z,3.43
2019-02-15T18:28:58.486Z,3.77
2019-02-15T18:31:24.690Z,3.50
2019-02-15T18:33:51.229Z,2.87
2019-02-15T18:36:23.814Z,3.87
2019-02-15T18:38:50.009Z,3.77
2019-02-15T18:41:16.233Z,3.47
2019-02-15T18:43:42.913Z,3.23
2019-02-15T18:46:09.131Z,3.40
2019-02-15T18:48:37.906Z,3.83
2019-02-15T18:51:06.785Z,3.53
2019-02-15T18:53:33.316Z,3.80
2019-02-15T18:55:59.545Z,3.70
2019-02-15T18:58:25.715Z,4.00
2019-02-15T19:00:52.477Z,4.40
2019-02-15T19:03:18.792Z,3.87
2019-02-15T19:05:45.010Z,4.07
2019-02-15T19:08:11.179Z,4.37
2019-02-15T19:10:37.431Z,3.93
2019-02-15T19:13:04.520Z,3.63
2019-02-15T19:15:38.134Z,4.03
2019-02-15T19:18:12.736Z,3.53
2019-02-15T19:20:44.840Z,3.90
2019-02-15T19:26:41.218Z,4.10
2019-02-15T19:29:07.504Z,3.57
2019-02-15T19:31:35.891Z,4.13
2019-02-15T19:34:05.512Z,3.70
2019-02-15T19:36:37.230Z,3.80
2019-02-15T19:39:06.314Z,3.80
2019-02-15T19:41:32.527Z,4.23
2019-02-15T19:44:01.188Z,4.23
2019-02-15T19:46:29.532Z,4.40
2019-02-15T19:48:57.831Z,3.83
2019-02-15T19:51:54.568Z,4.00
2019-02-15T19:54:25.583Z,3.60
2019-02-15T19:56:54.944Z,4.03
2019-02-15T19:59:21.341Z,3.67
2019-02-15T20:01:53.770Z,3.73
2019-02-15T20:04:30.284Z,4.00
2019-02-15T20:06:56.652Z,3.90
2019-02-15T20:14:35.835Z,4.50
2019-02-15T20:14:41.171Z,4.50
2019-02-15T20:17:07.495Z,4.87
2019-02-15T20:19:33.683Z,5.40
2019-02-15T20:21:59.951Z,4.40
2019-02-15T20:24:26.117Z,3.67
2019-02-15T20:26:52.477Z,4.13
2019-02-15T20:29:18.676Z,3.97
2019-02-15T20:31:44.952Z,3.60
2019-02-15T20:34:11.234Z,3.83
2019-02-15T20:36:37.461Z,4.30
2019-02-15T20:39:03.939Z,3.83
2019-02-15T20:41:30.189Z,4.00
2019-02-15T20:43:56.369Z,4.03
2019-02-15T20:46:22.614Z,4.40
2019-02-15T20:48:49.272Z,4.10
2019-02-15T20:51:15.503Z,3.60
2019-02-15T20:53:44.450Z,3.60
2019-02-15T20:56:10.633Z,3.80
2019-02-15T20:58:36.849Z,3.53
2019-02-15T21:01:03.301Z,3.80
2019-02-15T21:03:29.631Z,3.47
2019-02-15T21:05:55.826Z,4.03
2019-02-15T21:08:22.037Z,3.53
2019-02-15T21:10:54.467Z,4.07
2019-02-15T21:13:20.499Z,4.20
2019-02-15T21:15:44.528Z,4.37
2019-02-15T21:18:10.779Z,3.80
2019-02-15T21:20:36.954Z,3.67
2019-02-15T21:23:03.156Z,3.70
2019-02-15T21:25:29.322Z,3.93
2019-02-15T21:27:55.546Z,3.63
2019-02-15T21:30:21.768Z,3.93
2019-02-15T21:32:48.827Z,3.93
2019-02-15T21:35:15.017Z,3.87
2019-02-15T21:37:43.244Z,4.23
2019-02-15T21:40:18.662Z,4.50
2019-02-15T21:42:44.915Z,4.30
2019-02-15T21:45:12.300Z,4.03
2019-02-15T21:47:38.492Z,3.70
2019-02-15T21:50:16.731Z,3.57
2019-02-15T21:52:44.099Z,3.60
2019-02-15T21:55:12.297Z,3.37
2019-02-15T21:57:38.468Z,3.17
2019-02-15T22:00:15.377Z,3.70
2019-02-15T22:02:41.577Z,3.70
2019-02-15T22:05:07.759Z,3.60
2019-02-15T22:07:34.463Z,4.00
2019-02-15T22:10:00.963Z,3.87
2019-02-15T22:12:27.477Z,3.23
2019-02-15T22:14:53.887Z,3.60
2019-02-15T22:17:20.347Z,3.40
2019-02-15T22:19:46.508Z,3.17
2019-02-15T22:22:12.725Z,3.60
2019-02-15T22:24:38.897Z,3.50
2019-02-15T22:27:05.074Z,3.87
2019-02-15T22:29:31.670Z,3.73
2019-02-15T22:31:57.842Z,4.10
2019-02-15T22:34:24.018Z,3.93
2019-02-15T22:36:50.211Z,3.50
2019-02-15T22:39:16.500Z,3.90
2019-02-15T22:41:42.819Z,3.83
2019-02-15T22:44:11.041Z,3.93
2019-02-15T22:46:39.842Z,4.30
2019-02-15T22:49:06.218Z,4.00
2019-02-15T22:51:33.400Z,3.80
2019-02-15T22:53:59.735Z,4.03
2019-02-15T22:56:26.363Z,4.47
2019-02-15T22:58:53.025Z,4.70
2019-02-15T23:01:19.766Z,4.30
2019-02-15T23:03:46.184Z,4.40
2019-02-15T23:06:12.756Z,3.93
2019-02-15T23:08:39.166Z,3.77
2019-02-15T23:11:05.820Z,3.90
2019-02-15T23:13:32.044Z,3.50
2019-02-15T23:15:58.195Z,4.10
2019-02-15T23:18:24.726Z,3.40
2019-02-15T23:20:53.049Z,3.37
2019-02-15T23:23:19.491Z,3.60
2019-02-15T23:25:45.850Z,3.50
2019-02-15T23:28:12.339Z,3.57
2019-02-15T23:30:38.592Z,3.20
2019-02-15T23:33:04.789Z,3.57
2019-02-15T23:35:30.957Z,3.50
2019-02-15T23:37:57.145Z,3.57
2019-02-15T23:40:23.820Z,3.63
2019-02-15T23:42:50.012Z,3.43
2019-02-15T23:45:16.197Z,3.53
2019-02-15T23:47:42.382Z,3.80
2019-02-15T23:50:08.575Z,3.40
2019-02-15T23:52:37.790Z,3.50
2019-02-15T23:55:04.380Z,3.70
2019-02-15T23:57:30.558Z,3.73
2019-02-15T23:59:56.756Z,3.67
